Terminal Aerodrome Forecast
Issued by NWS

Home | Current Version | Previous Version | Text Only | Print | Product List | Glossary Off
Versions: 1 2 3 4 5 6 7 8 9 10 11 12 13 14 15 16 17 18 19 20 21

000
FTUS43 KMPX 110500
TAFRNH
TAF
KRNH 110530Z 1106/1206 18009KT P6SM -SHRA SCT050 BKN090 OVC250
      TEMPO 1113/1115 4SM TSRA OVC035CB
     FM111500 20010KT P6SM -SHRA BKN040 OVC080
     FM111900 22008KT P6SM OVC035=

USA.gov is the U.S. government's official web portal to all federal, state and local government web resources and services.